Time;durP1;ratioP1;P1;durP2;ratioP2;P2;SDS_P1;SDS_P2;PMS_P1;PMS_P2;Temp;Humidity;BMP_temperature;BMP_pressure;BME280_temperature;BME280_humidity;BME280_pressure;Samples;Min_cycle;Max_cycle;Signal;HPM_P1;HPM_P2
2021/01/13 00:01:45;;;;;;;1.10;0.80;;;;;;;0.16;100.00;98964.69;3799772;77;391898;-75
2021/01/13 00:07:06;;;;;;;0.90;0.80;;;;;;;0.00;100.00;98962.38;3799957;77;391911;-75
2021/01/13 00:12:28;;;;;;;0.80;0.40;;;;;;;0.00;100.00;98964.31;3800468;77;383565;-75
2021/01/13 00:17:50;;;;;;;3.67;1.60;;;;;;;0.00;100.00;98973.77;3799338;77;394072;-75
2021/01/13 00:23:11;;;;;;;2.20;1.70;;;;;;;0.00;100.00;98970.49;3797324;77;395028;-75
2021/01/13 00:28:34;;;;;;;2.50;1.33;;;;;;;0.05;100.00;98966.22;3799318;77;396132;-75
2021/01/13 00:33:55;;;;;;;2.07;1.10;;;;;;;0.08;100.00;98976.95;3800327;77;383581;-75
2021/01/13 00:39:17;;;;;;;0.80;0.60;;;;;;;0.10;100.00;98977.39;3800468;77;383847;-75
2021/01/13 00:44:38;;;;;;;1.10;0.70;;;;;;;0.13;100.00;98983.49;3800084;77;387814;-75
2021/01/13 00:50:00;;;;;;;2.73;1.03;;;;;;;0.12;100.00;98981.91;3799578;77;396344;-76
2021/01/13 00:55:21;;;;;;;1.37;1.23;;;;;;;0.09;100.00;98975.26;3800204;77;383592;-75
2021/01/13 01:00:42;;;;;;;1.23;1.07;;;;;;;0.02;100.00;98976.91;3800255;77;387986;-76
2021/01/13 01:06:03;;;;;;;1.30;1.17;;;;;;;-0.13;100.00;98984.87;3799463;77;389772;-76
2021/01/13 01:11:33;;;;;;;1.97;1.27;;;;;;;-0.23;100.00;98989.33;3799413;77;396113;-76
2021/01/13 01:16:54;;;;;;;1.40;1.30;;;;;;;-0.50;100.00;98993.36;3799826;77;388011;-76
2021/01/13 01:22:16;;;;;;;1.20;0.90;;;;;;;-0.45;100.00;98998.55;3799762;77;389862;-76
2021/01/13 01:27:37;;;;;;;0.80;0.40;;;;;;;-0.65;100.00;99008.00;3800133;77;383590;-76
2021/01/13 01:32:59;;;;;;;4.97;1.33;;;;;;;-0.60;100.00;99010.49;3799795;77;383925;-76
2021/01/13 01:38:20;;;;;;;0.90;0.70;;;;;;;-0.48;100.00;99020.81;3800107;77;383769;-75
2021/01/13 01:43:46;;;;;;;2.10;1.60;;;;;;;-0.41;100.00;99023.81;3798986;77;396340;-76
2021/01/13 01:49:08;;;;;;;1.23;1.13;;;;;;;-0.27;100.00;99017.58;3800160;77;383601;-76
2021/01/13 01:54:32;;;;;;;2.40;1.33;;;;;;;-0.31;100.00;99024.75;3799352;77;394189;-75
2021/01/13 02:00:00;;;;;;;0.80;0.60;;;;;;;-0.43;100.00;99033.34;3801352;77;383796;-75
2021/01/13 02:05:23;;;;;;;1.00;0.77;;;;;;;-0.25;100.00;99029.40;3799787;77;387933;-76
2021/01/13 02:10:46;;;;;;;0.97;0.87;;;;;;;-0.13;100.00;99025.42;3799906;77;383592;-75
2021/01/13 02:16:08;;;;;;;5.17;2.60;;;;;;;-0.29;100.00;99027.91;3799460;77;392194;-75
2021/01/13 02:21:31;;;;;;;1.47;1.03;;;;;;;-0.10;100.00;99021.48;3799241;77;394248;-75
2021/01/13 02:27:07;;;;;;;0.90;0.53;;;;;;;-0.11;100.00;99010.44;3800051;77;383600;-76
2021/01/13 02:32:37;;;;;;;1.60;1.00;;;;;;;-0.11;100.00;99013.69;3741762;77;396401;-76
2021/01/13 02:38:08;;;;;;;1.10;1.00;;;;;;;-0.16;100.00;99028.20;3800211;77;396146;-76
2021/01/13 02:43:31;;;;;;;1.10;0.90;;;;;;;-0.04;100.00;99030.97;3801197;77;383780;-76
2021/01/13 02:48:55;;;;;;;0.90;0.53;;;;;;;-0.12;100.00;99030.48;3800460;77;383572;-76
2021/01/13 02:54:37;;;;;;;1.00;0.90;;;;;;;-0.09;100.00;99032.54;3800657;77;388056;-76
2021/01/13 02:59:59;;;;;;;1.47;1.37;;;;;;;-0.10;100.00;99036.90;3799711;76;396076;-76
2021/01/13 03:05:20;;;;;;;0.80;0.60;;;;;;;-0.02;100.00;99040.90;3800175;77;383565;-76
2021/01/13 03:10:45;;;;;;;2.40;1.17;;;;;;;-0.09;100.00;99043.35;3799048;77;396093;-76
2021/01/13 03:16:06;;;;;;;0.97;0.87;;;;;;;-0.13;100.00;99049.75;3800049;77;383537;-76
2021/01/13 03:21:46;;;;;;;0.90;0.70;;;;;;;0.00;100.00;99053.53;3799435;77;391848;-76
2021/01/13 03:27:10;;;;;;;1.63;1.07;;;;;;;-0.01;100.00;99058.71;3799720;77;396300;-76
2021/01/13 03:32:34;;;;;;;1.07;0.97;;;;;;;0.08;100.00;99065.62;3800071;76;394987;-76
2021/01/13 03:38:02;;;;;;;1.63;0.97;;;;;;;-0.04;100.00;99071.53;3800268;76;393985;-76
2021/01/13 03:43:24;;;;;;;1.57;1.30;;;;;;;-0.13;100.00;99073.50;3799291;77;395044;-76
2021/01/13 03:48:49;;;;;;;1.37;1.27;;;;;;;-0.16;100.00;99078.78;3798887;77;396076;-76
2021/01/13 03:54:12;;;;;;;2.27;1.07;;;;;;;-0.23;100.00;99072.53;3798807;77;394269;-76
2021/01/13 03:59:45;;;;;;;1.17;1.07;;;;;;;-0.32;100.00;99083.96;3798985;77;395266;-76
2021/01/13 04:05:30;;;;;;;0.80;0.40;;;;;;;-0.24;100.00;99079.05;3801240;76;383864;-75
2021/01/13 04:10:52;;;;;;;8.00;3.17;;;;;;;-0.34;100.00;99080.82;3799406;77;391938;-75
2021/01/13 04:16:16;;;;;;;2.10;0.97;;;;;;;-0.36;100.00;99082.24;3799245;77;389160;-75
2021/01/13 04:21:37;;;;;;;1.43;1.33;;;;;;;-0.44;100.00;99080.39;3800018;76;396044;-75
2021/01/13 04:26:58;;;;;;;3.27;1.27;;;;;;;-0.46;100.00;99087.48;3799329;77;396032;-75
2021/01/13 04:32:20;;;;;;;3.03;2.03;;;;;;;-0.55;100.00;99097.54;3798865;77;396297;-75
2021/01/13 04:37:41;;;;;;;0.90;0.63;;;;;;;-0.60;100.00;99092.34;3800220;77;387945;-75
2021/01/13 04:43:08;;;;;;;0.90;0.70;;;;;;;-0.56;100.00;99092.47;3800419;77;385629;-75
2021/01/13 04:48:33;;;;;;;1.30;1.20;;;;;;;-0.50;100.00;99094.67;3800056;76;391863;-75
2021/01/13 04:53:55;;;;;;;1.83;1.73;;;;;;;-0.50;100.00;99104.13;3800464;76;383552;-75
2021/01/13 04:59:35;;;;;;;1.67;0.80;;;;;;;-0.35;100.00;99104.09;3799438;77;393984;-75
2021/01/13 05:05:08;;;;;;;0.90;0.67;;;;;;;-0.36;100.00;99111.42;3800575;77;383563;-75
2021/01/13 05:10:32;;;;;;;0.80;0.50;;;;;;;-0.43;100.00;99112.50;3800459;77;383855;-75
2021/01/13 05:15:57;;;;;;;2.90;0.70;;;;;;;-0.39;100.00;99106.66;3799935;77;383836;-75
2021/01/13 05:21:21;;;;;;;2.50;1.60;;;;;;;-0.35;100.00;99117.06;3799533;77;390048;-75
2021/01/13 05:26:44;;;;;;;0.80;0.40;;;;;;;-0.36;100.00;99114.67;3800239;77;383775;-75
2021/01/13 05:32:06;;;;;;;0.80;0.60;;;;;;;-0.30;100.00;99103.35;3801110;77;383813;-75
2021/01/13 05:37:48;;;;;;;0.80;0.50;;;;;;;-0.19;100.00;99101.86;3800534;77;383840;-75
2021/01/13 05:43:10;;;;;;;3.17;1.17;;;;;;;-0.15;100.00;99113.58;3766509;77;383807;-75
2021/01/13 05:48:34;;;;;;;0.93;0.70;;;;;;;-0.15;100.00;99104.13;3800029;77;383815;-75
2021/01/13 05:53:56;;;;;;;0.80;0.53;;;;;;;-0.08;100.00;99092.22;3801081;77;383564;-75
2021/01/13 05:59:19;;;;;;;0.80;0.50;;;;;;;-0.02;100.00;99097.11;3800087;77;383577;-75
2021/01/13 06:04:43;;;;;;;1.37;1.27;;;;;;;0.01;100.00;99099.70;3799645;77;383777;-75
2021/01/13 06:10:05;;;;;;;1.27;0.70;;;;;;;0.08;100.00;99087.25;3799975;77;383564;-75
2021/01/13 06:15:27;;;;;;;1.03;0.93;;;;;;;0.11;100.00;99096.61;3799964;77;383781;-75
2021/01/13 06:20:48;;;;;;;0.90;0.70;;;;;;;0.04;100.00;99100.41;3799655;77;390090;-75
2021/01/13 06:26:10;;;;;;;1.10;0.80;;;;;;;0.04;100.00;99107.95;3799703;77;391864;-75
2021/01/13 06:31:34;;;;;;;0.90;0.80;;;;;;;0.12;100.00;99104.38;3799430;77;392894;-75
2021/01/13 06:37:01;;;;;;;0.80;0.40;;;;;;;0.17;100.00;99102.84;3800882;76;383769;-75
2021/01/13 06:42:32;;;;;;;1.87;1.77;;;;;;;0.02;100.00;99101.29;3799999;76;396138;-75
2021/01/13 06:47:57;;;;;;;10.67;1.07;;;;;;;-0.07;100.00;99107.32;3800929;76;383594;-75
2021/01/13 06:53:21;;;;;;;0.80;0.63;;;;;;;0.03;100.00;99100.98;3800131;77;383796;-74
2021/01/13 06:59:02;;;;;;;1.40;1.30;;;;;;;0.06;100.00;99106.28;3800713;76;383970;-74
2021/01/13 07:04:25;;;;;;;0.80;0.50;;;;;;;0.13;100.00;99110.59;3800070;77;383568;-74
2021/01/13 07:09:51;;;;;;;1.43;1.33;;;;;;;0.28;100.00;99122.16;3799214;77;389800;-75
2021/01/13 07:15:11;;;;;;;0.90;0.70;;;;;;;0.31;100.00;99121.52;3800946;76;389819;-74
2021/01/13 07:20:41;;;;;;;3.33;1.07;;;;;;;0.27;100.00;99113.27;3799012;77;396103;-74
2021/01/13 07:26:03;;;;;;;1.00;0.80;;;;;;;0.20;100.00;99110.28;3799640;77;391915;-74
2021/01/13 07:31:28;;;;;;;1.37;1.27;;;;;;;0.09;100.00;99116.42;3799405;77;392947;-75
2021/01/13 07:36:51;;;;;;;6.37;2.10;;;;;;;-0.02;100.00;99109.84;3772243;77;383904;-75
2021/01/13 07:42:17;;;;;;;1.03;0.70;;;;;;;-0.16;100.00;99110.64;3800069;77;387836;-74
2021/01/13 07:48:17;;;;;;;0.80;0.40;;;;;;;-0.24;100.00;99111.48;3800836;77;383821;-74
2021/01/13 07:53:39;;;;;;;1.00;0.70;;;;;;;-0.26;100.00;99111.05;3799649;77;389981;-74
2021/01/13 07:59:09;;;;;;;0.80;0.40;;;;;;;-0.23;100.00;99111.73;3799925;77;383580;-74
2021/01/13 08:04:45;;;;;;;0.80;0.40;;;;;;;-0.28;100.00;99111.16;3801180;76;383592;-75
2021/01/13 08:10:09;;;;;;;5.80;1.77;;;;;;;-0.19;100.00;99109.16;3799899;76;393927;-74
2021/01/13 08:15:54;;;;;;;0.80;0.47;;;;;;;-0.19;100.00;99105.91;3800118;77;383576;-74
2021/01/13 08:21:30;;;;;;;0.80;0.40;;;;;;;-0.19;100.00;99124.84;3800606;77;383591;-74
2021/01/13 08:26:40;;;;;;;1.20;0.70;;;;;;;-0.14;100.00;99134.09;3801302;77;383857;-74
2021/01/13 08:32:10;;;;;;;2.90;1.17;;;;;;;0.05;100.00;99147.97;3799764;77;383820;-74
2021/01/13 08:37:34;;;;;;;0.80;0.40;;;;;;;0.17;100.00;99143.42;3800075;77;383568;-74
2021/01/13 08:43:12;;;;;;;0.80;0.40;;;;;;;0.33;100.00;99148.46;3800613;77;383533;-74
2021/01/13 08:48:35;;;;;;;1.43;0.80;;;;;;;0.19;100.00;99137.67;3799359;77;394194;-74
2021/01/13 08:54:16;;;;;;;0.80;0.40;;;;;;;0.35;100.00;99135.95;3801473;77;383777;-74
2021/01/13 08:59:45;;;;;;;0.80;0.50;;;;;;;0.56;100.00;99132.67;3800507;77;383572;-74
2021/01/13 09:05:08;;;;;;;0.80;0.40;;;;;;;0.57;100.00;99139.09;3800240;77;383561;-74
2021/01/13 09:10:48;;;;;;;6.50;1.03;;;;;;;0.76;100.00;99137.23;3799372;77;392134;-74
2021/01/13 09:16:27;;;;;;;1.27;1.17;;;;;;;0.92;100.00;99130.87;3772420;77;392983;-74
2021/01/13 09:21:52;;;;;;;0.80;0.40;;;;;;;1.08;100.00;99140.70;3800042;77;383796;-74
2021/01/13 09:27:14;;;;;;;0.87;0.63;;;;;;;1.19;100.00;99135.09;3801217;77;383580;-74
2021/01/13 09:32:42;;;;;;;1.57;0.80;;;;;;;1.31;100.00;99152.70;3799822;77;383572;-74
2021/01/13 09:38:08;;;;;;;1.10;0.60;;;;;;;1.31;100.00;99149.22;3801041;76;387797;-74
2021/01/13 09:43:41;;;;;;;1.77;0.97;;;;;;;0.99;100.00;99144.06;3799176;77;392135;-74
2021/01/13 09:49:05;;;;;;;0.90;0.63;;;;;;;1.12;100.00;99149.77;3800400;77;385667;-74
2021/01/13 09:54:27;;;;;;;1.10;0.80;;;;;;;1.09;100.00;99137.45;3799509;77;391945;-74
2021/01/13 10:00:00;;;;;;;0.80;0.60;;;;;;;1.43;100.00;99152.73;3800514;77;383813;-74
2021/01/13 10:05:21;;;;;;;0.90;0.70;;;;;;;1.46;100.00;99138.48;3800420;77;383576;-74
2021/01/13 10:10:42;;;;;;;1.03;0.93;;;;;;;2.19;100.00;99139.99;3799972;77;383565;-75
2021/01/13 10:16:04;;;;;;;1.00;0.90;;;;;;;1.87;100.00;99138.24;3800231;77;383584;-75
2021/01/13 10:21:27;;;;;;;1.60;1.47;;;;;;;1.63;100.00;99142.33;3799443;77;396029;-74
2021/01/13 10:26:50;;;;;;;0.80;0.40;;;;;;;1.63;100.00;99143.14;3800995;76;383847;-74
2021/01/13 10:32:14;;;;;;;1.00;0.53;;;;;;;1.60;100.00;99134.89;3799693;77;387821;-74
2021/01/13 10:37:47;;;;;;;0.80;0.40;;;;;;;1.43;100.00;99125.63;3800072;77;383568;-74
2021/01/13 10:43:09;;;;;;;1.77;1.47;;;;;;;1.55;100.00;99117.48;3800240;77;383569;-74
2021/01/13 10:48:30;;;;;;;1.67;1.13;;;;;;;1.72;100.00;99111.83;3799917;77;391852;-75
2021/01/13 10:53:55;;;;;;;1.00;0.80;;;;;;;2.22;100.00;99093.19;3799544;77;392179;-75
2021/01/13 10:59:17;;;;;;;1.03;0.83;;;;;;;2.21;100.00;99093.77;3800837;77;383529;-75
2021/01/13 11:04:43;;;;;;;0.90;0.80;;;;;;;2.17;100.00;99086.08;3799628;77;391954;-75
2021/01/13 11:10:06;;;;;;;0.80;0.50;;;;;;;2.00;100.00;99076.08;3799998;77;383797;-74
2021/01/13 11:15:27;;;;;;;0.80;0.40;;;;;;;2.03;100.00;99057.73;3800214;77;383785;-75
2021/01/13 11:20:51;;;;;;;1.13;0.80;;;;;;;2.75;100.00;99048.13;3799680;77;388851;-74
2021/01/13 11:26:14;;;;;;;1.10;1.00;;;;;;;2.73;100.00;99050.42;3800076;77;387788;-75
2021/01/13 11:31:36;;;;;;;1.37;1.10;;;;;;;3.29;100.00;99057.27;3800555;76;392133;-74
2021/01/13 11:37:15;;;;;;;0.80;0.50;;;;;;;3.05;100.00;99047.14;3800434;77;383776;-74
2021/01/13 11:42:42;;;;;;;1.30;0.70;;;;;;;3.29;100.00;99038.24;3800858;77;383584;-74
2021/01/13 11:48:08;;;;;;;7.43;4.30;;;;;;;3.16;100.00;99047.06;3800663;77;383584;-74
2021/01/13 11:53:32;;;;;;;0.87;0.60;;;;;;;3.08;100.00;99039.66;3773630;77;383784;-74
2021/01/13 11:58:54;;;;;;;1.00;0.90;;;;;;;2.97;100.00;99051.62;3800348;77;385670;-74
2021/01/13 12:04:16;;;;;;;0.90;0.63;;;;;;;3.00;100.00;99041.98;3800393;77;387748;-74
2021/01/13 12:09:37;;;;;;;1.10;0.70;;;;;;;2.90;100.00;99050.64;3799622;77;392103;-75
2021/01/13 12:15:10;;;;;;;4.00;1.37;;;;;;;2.94;100.00;99025.73;3799690;77;392937;-74
2021/01/13 12:20:35;;;;;;;1.67;1.27;;;;;;;2.99;100.00;99018.08;3799344;77;396152;-74
2021/01/13 12:26:19;;;;;;;1.90;0.60;;;;;;;2.93;100.00;99024.15;3800357;77;388824;-73
2021/01/13 12:31:46;;;;;;;1.93;1.07;;;;;;;3.05;100.00;99015.89;3800466;77;393949;-73
2021/01/13 12:37:07;;;;;;;2.67;0.90;;;;;;;2.89;100.00;99000.97;3800055;77;390039;-74
2021/01/13 12:42:33;;;;;;;0.90;0.70;;;;;;;2.80;100.00;99010.41;3800616;77;383587;-74
2021/01/13 12:47:56;;;;;;;0.80;0.60;;;;;;;2.75;100.00;98997.11;3800697;77;383781;-74
2021/01/13 12:53:17;;;;;;;1.57;1.47;;;;;;;2.75;100.00;98997.88;3800101;77;383838;-74
2021/01/13 12:58:38;;;;;;;0.80;0.50;;;;;;;2.79;100.00;98981.12;3800400;77;383588;-74
2021/01/13 13:03:59;;;;;;;0.80;0.50;;;;;;;2.80;100.00;98973.19;3800583;77;383792;-74
2021/01/13 13:09:20;;;;;;;1.87;0.90;;;;;;;2.81;100.00;98983.47;3799881;77;383855;-73
2021/01/13 13:14:42;;;;;;;0.90;0.70;;;;;;;2.81;100.00;98973.41;3799938;77;387789;-74
2021/01/13 13:20:05;;;;;;;0.80;0.40;;;;;;;2.84;100.00;98972.70;3800124;77;383780;-74
2021/01/13 13:25:26;;;;;;;0.90;0.50;;;;;;;2.84;100.00;98964.55;3800377;77;383870;-73
2021/01/13 13:30:47;;;;;;;2.40;1.07;;;;;;;2.89;100.00;98964.30;3799317;77;389765;-73
2021/01/13 13:36:09;;;;;;;0.80;0.40;;;;;;;3.03;100.00;98957.05;3800229;77;383761;-73
2021/01/13 13:41:31;;;;;;;0.93;0.50;;;;;;;2.99;100.00;98953.45;3800182;77;383592;-74
2021/01/13 13:46:51;;;;;;;0.80;0.50;;;;;;;2.80;100.00;98942.51;3800500;77;383848;-74
2021/01/13 13:52:12;;;;;;;0.80;0.40;;;;;;;2.80;100.00;98944.67;3800186;77;383643;-74
2021/01/13 13:57:34;;;;;;;14.23;1.90;;;;;;;2.77;100.00;98931.01;3798971;77;392896;-74
2021/01/13 14:02:55;;;;;;;0.80;0.60;;;;;;;2.72;100.00;98923.91;3800339;77;383595;-74
2021/01/13 14:08:17;;;;;;;0.80;0.40;;;;;;;2.71;100.00;98922.88;3799954;77;383537;-74
2021/01/13 14:13:47;;;;;;;1.77;0.60;;;;;;;2.68;100.00;98936.61;3799685;77;386891;-73
2021/01/13 14:19:08;;;;;;;1.30;0.83;;;;;;;2.68;100.00;98916.81;3799802;77;390822;-73
2021/01/13 14:24:29;;;;;;;0.80;0.50;;;;;;;2.66;100.00;98917.18;3800174;77;383745;-73
2021/01/13 14:29:50;;;;;;;0.80;0.50;;;;;;;2.64;100.00;98911.86;3800265;77;383588;-74
2021/01/13 14:35:12;;;;;;;0.90;0.67;;;;;;;2.63;100.00;98904.84;3799348;77;391847;-74
2021/01/13 14:40:33;;;;;;;1.00;0.80;;;;;;;2.59;100.00;98888.47;3772681;77;385659;-74
2021/01/13 14:45:54;;;;;;;0.90;0.77;;;;;;;2.54;100.00;98879.83;3800072;77;383823;-73
2021/01/13 14:51:15;;;;;;;0.80;0.40;;;;;;;2.55;100.00;98875.40;3799929;77;383584;-73
2021/01/13 14:56:37;;;;;;;0.90;0.50;;;;;;;2.55;100.00;98876.76;3799948;77;383564;-73
2021/01/13 15:02:01;;;;;;;0.83;0.50;;;;;;;2.50;100.00;98872.16;3799934;77;383564;-73
2021/01/13 15:07:22;;;;;;;3.00;1.50;;;;;;;2.54;100.00;98860.24;3799105;77;387735;-73
2021/01/13 15:12:44;;;;;;;0.90;0.60;;;;;;;2.46;100.00;98856.37;3799892;77;385636;-73
2021/01/13 15:18:05;;;;;;;0.80;0.50;;;;;;;2.35;100.00;98849.30;3799987;77;383823;-73
2021/01/13 15:23:27;;;;;;;2.60;1.07;;;;;;;2.31;100.00;98856.36;3799536;77;383768;-73
2021/01/13 15:28:48;;;;;;;0.90;0.60;;;;;;;2.30;100.00;98843.93;3800416;77;384048;-72
2021/01/13 15:34:10;;;;;;;0.80;0.50;;;;;;;2.23;100.00;98841.05;3800421;77;383779;-73
2021/01/13 15:39:31;;;;;;;0.90;0.77;;;;;;;2.18;100.00;98839.96;3799623;77;390109;-73
2021/01/13 15:44:52;;;;;;;1.67;1.10;;;;;;;2.11;100.00;98831.62;3798661;77;391887;-72
2021/01/13 15:50:14;;;;;;;2.97;1.00;;;;;;;2.16;100.00;98830.02;3799122;77;388730;-73
2021/01/13 15:55:39;;;;;;;3.83;0.90;;;;;;;2.18;100.00;98839.96;3799281;77;391882;-73
2021/01/13 16:01:00;;;;;;;2.50;0.73;;;;;;;2.17;100.00;98834.31;3799786;77;389772;-73
2021/01/13 16:06:22;;;;;;;0.80;0.50;;;;;;;2.12;100.00;98827.77;3799940;77;383560;-73
2021/01/13 16:11:44;;;;;;;0.80;0.50;;;;;;;2.11;100.00;98829.71;3799882;77;383588;-73
2021/01/13 16:17:05;;;;;;;0.90;0.70;;;;;;;2.08;100.00;98822.27;3799664;77;389768;-73
2021/01/13 16:22:29;;;;;;;0.80;0.47;;;;;;;2.12;100.00;98818.28;3799851;77;383572;-73
2021/01/13 16:27:50;;;;;;;1.17;1.07;;;;;;;2.14;100.00;98807.29;3800371;77;383805;-73
2021/01/13 16:33:12;;;;;;;0.80;0.50;;;;;;;2.08;100.00;98807.92;3799946;77;383537;-73
2021/01/13 16:38:35;;;;;;;0.80;0.50;;;;;;;2.06;100.00;98801.47;3800129;77;383593;-73
2021/01/13 16:43:57;;;;;;;1.00;0.83;;;;;;;2.09;100.00;98787.22;3799953;77;388041;-73
2021/01/13 16:49:19;;;;;;;1.57;0.97;;;;;;;2.06;100.00;98788.49;3799773;77;383533;-74
2021/01/13 16:54:40;;;;;;;10.90;0.90;;;;;;;2.02;100.00;98776.20;3799757;77;396277;-73
2021/01/13 17:00:16;;;;;;;0.80;0.53;;;;;;;1.95;100.00;98771.16;3800529;77;383777;-73
2021/01/13 17:05:37;;;;;;;0.97;0.87;;;;;;;1.83;100.00;98773.97;3799696;77;387798;-73
2021/01/13 17:10:58;;;;;;;0.80;0.50;;;;;;;1.81;100.00;98768.09;3800329;77;383584;-73
2021/01/13 17:16:20;;;;;;;1.10;0.90;;;;;;;1.85;100.00;98767.64;3800154;77;383592;-73
2021/01/13 17:21:42;;;;;;;1.00;0.83;;;;;;;1.81;100.00;98744.50;3799832;77;387953;-73
2021/01/13 17:27:03;;;;;;;0.80;0.50;;;;;;;1.80;100.00;98742.13;3800169;77;383556;-73
2021/01/13 17:32:24;;;;;;;6.40;0.80;;;;;;;1.79;100.00;98729.70;3800434;77;383572;-73
2021/01/13 17:37:47;;;;;;;1.77;1.67;;;;;;;1.67;100.00;98739.28;3799544;77;383761;-73
2021/01/13 17:43:09;;;;;;;1.00;0.70;;;;;;;1.61;100.00;98717.07;3799397;77;391907;-73
2021/01/13 17:48:31;;;;;;;0.80;0.40;;;;;;;1.65;100.00;98728.80;3800485;77;383593;-73
2021/01/13 17:53:55;;;;;;;0.80;0.40;;;;;;;1.56;100.00;98721.18;3800179;77;383647;-73
2021/01/13 17:59:16;;;;;;;0.90;0.63;;;;;;;1.60;100.00;98724.98;3800313;77;383561;-73
2021/01/13 18:04:40;;;;;;;0.80;0.40;;;;;;;1.64;100.00;98716.93;3800239;77;383573;-73
2021/01/13 18:10:02;;;;;;;1.67;1.43;;;;;;;1.54;100.00;98703.89;3799085;77;396355;-73
2021/01/13 18:15:26;;;;;;;0.80;0.60;;;;;;;1.59;100.00;98705.01;3799992;77;383596;-73
2021/01/13 18:20:47;;;;;;;0.80;0.40;;;;;;;1.57;100.00;98713.47;3801300;77;383803;-73
2021/01/13 18:26:08;;;;;;;0.83;0.43;;;;;;;1.51;100.00;98701.90;3800134;77;383789;-73
2021/01/13 18:31:30;;;;;;;1.80;1.23;;;;;;;1.53;100.00;98710.48;3799526;77;385649;-73
2021/01/13 18:36:51;;;;;;;0.87;0.50;;;;;;;1.51;100.00;98710.03;3800299;77;383824;-73
2021/01/13 18:42:12;;;;;;;2.03;1.17;;;;;;;1.57;100.00;98700.50;3799455;77;394987;-74
2021/01/13 18:47:33;;;;;;;1.20;0.60;;;;;;;1.60;100.00;98690.32;3799755;77;389888;-73
2021/01/13 18:52:54;;;;;;;0.80;0.50;;;;;;;1.57;100.00;98685.01;3800365;77;383584;-74
2021/01/13 18:58:15;;;;;;;0.90;0.77;;;;;;;1.59;100.00;98684.67;3800373;77;383799;-74
2021/01/13 19:03:37;;;;;;;1.07;0.80;;;;;;;1.57;100.00;98679.39;3800191;77;385612;-73
2021/01/13 19:09:02;;;;;;;0.90;0.70;;;;;;;1.65;100.00;98677.30;3800066;77;389804;-73
2021/01/13 19:14:24;;;;;;;1.33;0.70;;;;;;;1.49;100.00;98673.00;3799957;77;391861;-73
2021/01/13 19:19:46;;;;;;;7.50;1.63;;;;;;;1.41;100.00;98663.12;3799515;77;393949;-73
2021/01/13 19:25:08;;;;;;;0.80;0.40;;;;;;;1.36;100.00;98652.55;3800404;77;383556;-73
2021/01/13 19:30:29;;;;;;;0.80;0.40;;;;;;;1.35;100.00;98650.98;3800250;77;383572;-73
2021/01/13 19:35:50;;;;;;;1.33;1.23;;;;;;;1.30;100.00;98647.16;3800060;77;383565;-74
2021/01/13 19:41:11;;;;;;;0.80;0.40;;;;;;;1.32;100.00;98623.22;3800329;77;383588;-74
2021/01/13 19:46:34;;;;;;;0.90;0.70;;;;;;;1.35;100.00;98625.23;3799854;77;391923;-73
2021/01/13 19:51:57;;;;;;;1.73;1.20;;;;;;;1.31;100.00;98632.48;3798947;77;395052;-73
2021/01/13 19:57:18;;;;;;;0.93;0.80;;;;;;;1.34;100.00;98630.44;3799679;77;391945;-74
2021/01/13 20:02:40;;;;;;;1.10;0.80;;;;;;;1.36;100.00;98631.42;3799761;77;383782;-74
2021/01/13 20:08:01;;;;;;;1.03;0.93;;;;;;;1.37;100.00;98640.58;3799865;77;391883;-73
2021/01/13 20:13:22;;;;;;;0.90;0.60;;;;;;;1.30;100.00;98634.97;3800337;77;385627;-74
2021/01/13 20:18:44;;;;;;;0.80;0.50;;;;;;;1.32;100.00;98632.70;3800551;77;383844;-73
2021/01/13 20:24:07;;;;;;;0.90;0.50;;;;;;;1.35;100.00;98617.11;3800112;77;383832;-73
2021/01/13 20:29:28;;;;;;;1.20;1.10;;;;;;;1.38;100.00;98621.03;3799366;77;391962;-73
2021/01/13 20:34:51;;;;;;;0.90;0.70;;;;;;;1.42;100.00;98606.98;3800394;77;383624;-74
2021/01/13 20:40:14;;;;;;;0.80;0.50;;;;;;;1.44;100.00;98585.75;3800250;77;383580;-73
2021/01/13 20:45:35;;;;;;;1.13;1.03;;;;;;;1.36;100.00;98584.81;3799257;77;396057;-73
2021/01/13 20:50:57;;;;;;;1.53;1.43;;;;;;;1.37;100.00;98582.33;3799474;77;391927;-73
2021/01/13 20:56:18;;;;;;;1.10;1.00;;;;;;;1.40;100.00;98576.77;3799811;77;387697;-73
2021/01/13 21:01:44;;;;;;;1.13;0.70;;;;;;;1.29;100.00;98583.84;3799919;77;383560;-73
2021/01/13 21:07:10;;;;;;;1.57;1.07;;;;;;;1.31;100.00;98585.06;3800277;76;393997;-74
2021/01/13 21:12:31;;;;;;;15.10;1.93;;;;;;;1.39;100.00;98587.39;3798601;77;396333;-74
2021/01/13 21:17:52;;;;;;;4.10;0.97;;;;;;;1.43;100.00;98585.53;3799289;77;394273;-74
2021/01/13 21:23:14;;;;;;;0.80;0.40;;;;;;;1.38;100.00;98598.78;3800232;77;383844;-74
2021/01/13 21:28:35;;;;;;;1.60;0.70;;;;;;;1.42;100.00;98594.24;3799617;77;386685;-74
2021/01/13 21:33:57;;;;;;;0.80;0.43;;;;;;;1.55;100.00;98589.51;3800085;77;383588;-74
2021/01/13 21:39:19;;;;;;;1.03;0.90;;;;;;;1.56;100.00;98587.02;3775043;77;391949;-74
2021/01/13 21:44:40;;;;;;;0.80;0.50;;;;;;;1.67;100.00;98575.28;3800576;77;383560;-74
2021/01/13 21:50:01;;;;;;;1.07;0.83;;;;;;;1.59;100.00;98570.25;3800021;77;383577;-74
2021/01/13 21:55:23;;;;;;;1.20;0.60;;;;;;;1.60;100.00;98566.41;3800225;77;383777;-74
2021/01/13 22:00:44;;;;;;;2.70;1.03;;;;;;;1.65;100.00;98545.82;3799529;77;394048;-74
2021/01/13 22:06:05;;;;;;;0.80;0.40;;;;;;;1.59;100.00;98552.63;3800315;77;383587;-74
2021/01/13 22:11:27;;;;;;;0.90;0.67;;;;;;;1.68;100.00;98564.66;3800051;77;383810;-74
2021/01/13 22:16:52;;;;;;;0.90;0.63;;;;;;;1.80;100.00;98558.55;3800336;77;383568;-73
2021/01/13 22:22:15;;;;;;;4.67;1.87;;;;;;;1.85;100.00;98557.48;3798933;77;395051;-74
2021/01/13 22:27:37;;;;;;;2.00;1.77;;;;;;;1.93;100.00;98563.27;3799306;77;387750;-74
2021/01/13 22:32:58;;;;;;;0.80;0.60;;;;;;;2.00;100.00;98570.97;3800086;77;383793;-74
2021/01/13 22:38:19;;;;;;;0.90;0.60;;;;;;;2.06;100.00;98569.53;3799957;77;385873;-74
2021/01/13 22:43:43;;;;;;;2.30;2.20;;;;;;;2.06;100.00;98574.19;3799133;77;394029;-74
2021/01/13 22:49:04;;;;;;;1.00;0.90;;;;;;;2.14;100.00;98575.91;3799199;77;396112;-74
2021/01/13 22:54:25;;;;;;;1.23;1.13;;;;;;;2.13;100.00;98562.93;3772833;77;392150;-74
2021/01/13 22:59:46;;;;;;;3.63;1.27;;;;;;;2.07;100.00;98548.64;3799155;77;391910;-74
2021/01/13 23:05:09;;;;;;;0.97;0.70;;;;;;;2.03;100.00;98545.86;3799657;77;387790;-74
2021/01/13 23:10:32;;;;;;;1.13;1.03;;;;;;;1.94;100.00;98554.77;3799446;77;383563;-74
2021/01/13 23:15:53;;;;;;;0.80;0.60;;;;;;;1.93;100.00;98545.64;3800229;77;383796;-74
2021/01/13 23:21:14;;;;;;;2.60;1.37;;;;;;;1.95;100.00;98547.41;3798731;77;396341;-74
2021/01/13 23:26:36;;;;;;;0.90;0.70;;;;;;;1.98;100.00;98555.61;3799950;77;387817;-74
2021/01/13 23:31:57;;;;;;;1.20;1.00;;;;;;;2.01;100.00;98558.20;3799736;77;388049;-74
2021/01/13 23:37:18;;;;;;;2.23;1.33;;;;;;;2.11;100.00;98557.06;3799070;77;394037;-74
2021/01/13 23:42:40;;;;;;;1.13;0.70;;;;;;;2.07;100.00;98548.64;3799668;77;388895;-74
2021/01/13 23:48:01;;;;;;;2.83;1.20;;;;;;;2.05;100.00;98546.84;3797670;77;389997;-74
2021/01/13 23:53:22;;;;;;;1.13;0.93;;;;;;;2.06;100.00;98549.78;3799157;77;392154;-74
2021/01/13 23:58:43;;;;;;;0.80;0.63;;;;;;;2.13;100.00;98552.63;3799903;77;387738;-73
